createdAt,value
2022-08-17T00:02:26.058Z,19.60
2022-08-17T00:04:54.026Z,19.60
2022-08-17T00:07:20.674Z,19.50
2022-08-17T00:09:47.302Z,19.50
2022-08-17T00:12:43.193Z,19.40
2022-08-17T00:15:01.159Z,19.30
2022-08-17T00:17:27.859Z,19.30
2022-08-17T00:19:54.478Z,19.30
2022-08-17T00:22:32.748Z,19.30
2022-08-17T00:25:05.466Z,19.40
2022-08-17T00:27:32.101Z,19.30
2022-08-17T00:29:58.763Z,19.40
2022-08-17T00:33:14.716Z,19.40
2022-08-17T00:35:14.902Z,19.30
2022-08-17T00:37:42.205Z,19.40
2022-08-17T00:40:11.443Z,19.40
2022-08-17T00:42:38.618Z,19.40
2022-08-17T00:45:08.338Z,19.40
2022-08-17T00:47:35.029Z,19.40
2022-08-17T00:50:02.205Z,19.40
2022-08-17T00:52:35.280Z,19.40
2022-08-17T00:55:04.657Z,19.30
2022-08-17T00:57:35.980Z,19.20
2022-08-17T01:00:13.114Z,19.20
2022-08-17T01:02:43.503Z,19.10
2022-08-17T01:05:18.651Z,19.10
2022-08-17T01:07:47.652Z,19.10
2022-08-17T01:10:58.842Z,19.00
2022-08-17T01:13:03.994Z,18.90
2022-08-17T01:15:35.069Z,18.80
2022-08-17T01:18:01.884Z,18.70
2022-08-17T01:20:28.569Z,18.70
2022-08-17T01:22:55.434Z,18.70
2022-08-17T01:25:22.700Z,18.70
2022-08-17T01:27:49.721Z,18.70
2022-08-17T01:30:57.465Z,18.70
2022-08-17T01:33:04.251Z,18.60
2022-08-17T01:35:31.081Z,18.60
2022-08-17T01:37:57.713Z,18.60
2022-08-17T01:40:35.737Z,18.60
2022-08-17T01:43:10.377Z,18.60
2022-08-17T01:45:45.046Z,18.60
2022-08-17T01:48:12.963Z,18.50
2022-08-17T01:50:52.254Z,18.50
2022-08-17T01:53:27.376Z,18.40
2022-08-17T01:55:58.183Z,18.40
2022-08-17T01:58:25.098Z,18.30
2022-08-17T02:01:00.475Z,18.30
2022-08-17T02:03:28.339Z,18.30
2022-08-17T02:05:55.218Z,18.30
2022-08-17T02:08:36.903Z,18.30
2022-08-17T02:11:11.624Z,18.20
2022-08-17T02:13:39.222Z,18.10
2022-08-17T02:16:06.294Z,18.10
2022-08-17T02:18:33.179Z,18.00
2022-08-17T02:21:00.229Z,18.00
2022-08-17T02:23:30.342Z,18.00
2022-08-17T02:25:59.829Z,18.00
2022-08-17T02:28:28.345Z,18.00
2022-08-17T02:31:02.621Z,17.90
2022-08-17T02:33:42.644Z,17.90
2022-08-17T02:36:11.960Z,17.90
2022-08-17T02:38:39.367Z,17.90
2022-08-17T02:41:06.334Z,17.80
2022-08-17T02:43:33.249Z,17.80
2022-08-17T02:45:59.906Z,17.90
2022-08-17T02:48:30.408Z,17.90
2022-08-17T02:50:58.859Z,17.90
2022-08-17T02:53:25.862Z,17.90
2022-08-17T02:55:53.201Z,18.00
2022-08-17T02:58:34.635Z,18.10
2022-08-17T03:01:04.454Z,18.00
2022-08-17T03:03:31.359Z,17.90
2022-08-17T03:05:58.003Z,17.90
2022-08-17T03:08:25.365Z,17.80
2022-08-17T03:10:52.143Z,17.90
2022-08-17T03:13:18.934Z,17.80
2022-08-17T03:15:46.853Z,17.80
2022-08-17T03:18:25.684Z,17.70
2022-08-17T03:20:58.126Z,17.70
2022-08-17T03:23:26.456Z,17.60
2022-08-17T03:25:54.769Z,17.60
2022-08-17T03:28:23.205Z,17.60
2022-08-17T03:30:51.134Z,17.60
2022-08-17T03:33:18.885Z,17.60
2022-08-17T03:35:45.949Z,17.60
2022-08-17T03:38:15.099Z,17.50
2022-08-17T03:40:56.705Z,17.50
2022-08-17T03:43:27.986Z,17.50
2022-08-17T03:46:33.971Z,17.40
2022-08-17T03:49:18.441Z,17.50
2022-08-17T03:52:03.824Z,17.40
2022-08-17T03:54:49.195Z,17.40
2022-08-17T03:57:16.293Z,17.40
2022-08-17T03:59:43.014Z,17.30
2022-08-17T04:02:28.411Z,17.40
2022-08-17T04:04:55.377Z,17.30
2022-08-17T04:07:24.654Z,17.30
2022-08-17T04:09:51.951Z,17.30
2022-08-17T04:12:20.403Z,17.30
2022-08-17T04:14:53.269Z,17.20
2022-08-17T04:17:27.738Z,17.30
2022-08-17T04:19:55.265Z,17.20
2022-08-17T04:22:30.249Z,17.30
2022-08-17T04:25:07.559Z,17.30
2022-08-17T04:27:34.625Z,17.20
2022-08-17T04:30:01.904Z,17.30
2022-08-17T04:33:00.767Z,17.30
2022-08-17T04:35:19.454Z,17.30
2022-08-17T04:37:46.151Z,17.30
2022-08-17T04:40:31.507Z,17.40
2022-08-17T04:43:02.830Z,17.40
2022-08-17T04:45:32.313Z,17.50
2022-08-17T04:48:00.431Z,17.50
2022-08-17T04:50:27.519Z,17.50
2022-08-17T04:52:54.230Z,17.60
2022-08-17T04:55:21.050Z,17.60
2022-08-17T04:57:47.703Z,17.70
2022-08-17T05:00:14.622Z,17.70
2022-08-17T05:02:50.187Z,17.80
2022-08-17T05:05:22.976Z,17.90
2022-08-17T05:07:57.708Z,18.00
2022-08-17T05:10:27.505Z,18.00
2022-08-17T05:13:16.865Z,18.10
2022-08-17T05:15:47.662Z,18.20
2022-08-17T05:18:15.932Z,18.20
2022-08-17T05:20:42.786Z,18.30
2022-08-17T05:23:13.494Z,18.40
2022-08-17T05:25:43.314Z,18.50
2022-08-17T05:28:16.132Z,18.60
2022-08-17T05:30:43.845Z,18.80
2022-08-17T05:33:16.950Z,18.90
2022-08-17T05:35:49.720Z,19.10
2022-08-17T05:38:18.741Z,19.20
2022-08-17T05:40:46.334Z,19.30
2022-08-17T05:43:16.338Z,19.40
2022-08-17T05:45:55.291Z,19.50
2022-08-17T05:48:35.642Z,19.60
2022-08-17T05:51:24.589Z,19.70
2022-08-17T05:53:51.170Z,19.80
2022-08-17T05:56:31.455Z,19.90
2022-08-17T05:59:12.491Z,19.90
2022-08-17T06:02:02.803Z,20.00
2022-08-17T06:04:47.506Z,20.00
2022-08-17T06:07:45.160Z,20.10
2022-08-17T06:10:28.230Z,20.20
2022-08-17T06:13:08.797Z,20.20
2022-08-17T06:16:33.793Z,20.30
2022-08-17T06:19:10.263Z,20.40
2022-08-17T06:21:42.218Z,20.50
2022-08-17T06:24:24.943Z,20.50
2022-08-17T06:26:53.682Z,20.60
2022-08-17T06:29:26.964Z,20.70
2022-08-17T06:31:53.610Z,20.80
2022-08-17T06:34:20.764Z,20.80
2022-08-17T06:37:00.263Z,20.90
2022-08-17T06:40:15.707Z,21.00
2022-08-17T06:43:12.641Z,21.10
2022-08-17T06:45:49.141Z,21.20
2022-08-17T06:48:33.694Z,21.20
2022-08-17T06:51:17.121Z,21.20
2022-08-17T06:54:10.527Z,21.10
2022-08-17T06:56:55.246Z,21.10
2022-08-17T06:59:55.742Z,21.10
2022-08-17T07:02:51.908Z,21.20
2022-08-17T07:05:21.250Z,21.30
2022-08-17T07:08:02.193Z,21.40
2022-08-17T07:10:36.320Z,21.40
2022-08-17T07:13:25.299Z,21.50
2022-08-17T07:15:57.208Z,21.70
2022-08-17T07:18:29.750Z,21.90
2022-08-17T07:21:03.685Z,22.00
2022-08-17T07:23:46.776Z,22.10
2022-08-17T07:26:13.491Z,22.20
2022-08-17T07:28:41.904Z,22.50
2022-08-17T07:31:09.128Z,22.70
2022-08-17T07:33:36.720Z,22.90
2022-08-17T07:36:03.708Z,23.10
2022-08-17T07:38:33.112Z,23.40
2022-08-17T07:41:06.414Z,23.50
2022-08-17T07:43:46.918Z,23.80
2022-08-17T07:46:34.527Z,24.00
2022-08-17T07:49:03.075Z,24.20
2022-08-17T07:51:57.560Z,24.30
2022-08-17T07:54:37.041Z,24.40
2022-08-17T07:57:15.493Z,24.50
2022-08-17T08:00:01.971Z,24.50
2022-08-17T08:02:38.554Z,24.70
2022-08-17T08:05:29.948Z,24.70
2022-08-17T08:08:26.004Z,25.00
2022-08-17T08:11:15.314Z,25.00
2022-08-17T08:13:45.246Z,25.30
2022-08-17T08:16:19.851Z,25.30
2022-08-17T08:18:55.283Z,25.40
2022-08-17T08:21:43.607Z,25.60
2022-08-17T08:24:41.207Z,25.80
2022-08-17T08:27:29.488Z,26.00
2022-08-17T08:30:04.938Z,26.20
2022-08-17T08:33:10.242Z,26.40
2022-08-17T08:35:44.325Z,26.50
2022-08-17T08:38:26.690Z,26.60
2022-08-17T08:41:27.684Z,26.80
2022-08-17T08:44:12.029Z,26.80
2022-08-17T08:46:59.831Z,26.90
2022-08-17T08:50:03.556Z,27.00
2022-08-17T08:52:30.806Z,27.10
2022-08-17T08:55:08.815Z,27.20
2022-08-17T08:57:46.880Z,27.40
2022-08-17T09:00:16.064Z,27.50
2022-08-17T09:03:08.312Z,27.60
2022-08-17T09:06:00.385Z,27.70
2022-08-17T09:08:45.853Z,28.10
2022-08-17T09:12:02.220Z,28.20
2022-08-17T09:14:44.970Z,28.40
2022-08-17T09:17:20.760Z,28.60
2022-08-17T09:20:05.718Z,28.80
2022-08-17T09:22:35.364Z,28.90
2022-08-17T09:25:19.206Z,28.90
2022-08-17T09:27:50.443Z,29.20
2022-08-17T09:30:19.327Z,29.50
2022-08-17T09:32:59.806Z,29.40
2022-08-17T09:35:37.112Z,29.50
2022-08-17T09:38:25.589Z,29.40
2022-08-17T09:41:09.418Z,29.30
2022-08-17T09:43:47.963Z,29.40
2022-08-17T09:46:24.893Z,29.50
2022-08-17T09:49:03.184Z,29.30
2022-08-17T09:51:36.432Z,28.90
2022-08-17T09:54:34.828Z,28.80
2022-08-17T09:57:29.878Z,28.90
2022-08-17T10:00:18.753Z,29.30
2022-08-17T10:03:17.098Z,29.50
2022-08-17T10:06:21.343Z,29.60
2022-08-17T10:09:22.843Z,29.60
2022-08-17T10:12:17.279Z,29.70
2022-08-17T10:15:09.713Z,29.70
2022-08-17T10:17:56.265Z,30.10
2022-08-17T10:20:37.043Z,30.20
2022-08-17T10:23:29.752Z,30.50
2022-08-17T10:26:24.824Z,30.30
2022-08-17T10:28:58.586Z,30.50
2022-08-17T10:31:35.371Z,30.60
2022-08-17T10:34:11.399Z,30.80
2022-08-17T10:36:54.878Z,30.70
2022-08-17T10:39:32.135Z,30.60
2022-08-17T10:42:11.853Z,30.30
2022-08-17T10:44:50.833Z,30.40
2022-08-17T10:47:19.424Z,30.50
2022-08-17T10:49:53.889Z,30.60
2022-08-17T10:52:21.707Z,30.40
2022-08-17T10:54:49.146Z,30.30
2022-08-17T10:57:33.739Z,30.30
2022-08-17T11:00:18.422Z,30.50
2022-08-17T11:02:54.729Z,30.50
2022-08-17T11:05:24.224Z,30.60
2022-08-17T11:08:01.587Z,30.60
2022-08-17T11:11:06.069Z,30.50
2022-08-17T11:14:13.798Z,30.50
2022-08-17T11:17:07.671Z,30.60
2022-08-17T11:19:54.295Z,30.50
2022-08-17T11:22:52.886Z,30.40
2022-08-17T11:25:31.429Z,30.40
2022-08-17T11:28:15.143Z,30.30
2022-08-17T11:30:46.811Z,30.30
2022-08-17T11:33:33.931Z,30.30
2022-08-17T11:36:06.441Z,30.20
2022-08-17T11:39:16.733Z,30.20
2022-08-17T11:42:06.182Z,30.10
2022-08-17T11:44:51.508Z,30.20
2022-08-17T11:47:41.617Z,30.10
2022-08-17T11:50:38.870Z,30.10
2022-08-17T11:53:06.106Z,30.10
2022-08-17T11:55:39.540Z,30.00
2022-08-17T11:58:08.424Z,29.90
2022-08-17T12:00:46.712Z,29.90
2022-08-17T12:03:34.487Z,30.00
2022-08-17T12:06:30.965Z,30.20
2022-08-17T12:09:15.661Z,30.00
2022-08-17T12:12:11.336Z,29.90
2022-08-17T12:15:07.884Z,30.00
2022-08-17T12:17:40.971Z,29.90
2022-08-17T12:20:17.561Z,29.90
2022-08-17T12:22:53.308Z,30.00
2022-08-17T12:25:33.006Z,30.10
2022-08-17T12:28:06.503Z,30.10
2022-08-17T12:30:35.128Z,30.30
2022-08-17T12:33:02.470Z,30.50
2022-08-17T12:35:35.081Z,30.50
2022-08-17T12:38:06.399Z,30.70
2022-08-17T12:40:57.845Z,30.60
2022-08-17T12:43:29.141Z,30.50
2022-08-17T12:46:13.268Z,30.50
2022-08-17T12:48:59.138Z,30.40
2022-08-17T12:51:28.767Z,30.40
2022-08-17T12:53:55.573Z,30.40
2022-08-17T12:56:22.337Z,30.50
2022-08-17T12:58:56.570Z,30.80
2022-08-17T13:01:24.912Z,30.90
2022-08-17T13:03:55.123Z,31.20
2022-08-17T13:06:34.435Z,31.40
2022-08-17T13:09:22.900Z,31.50
2022-08-17T13:12:03.214Z,31.80
2022-08-17T13:14:32.666Z,31.90
2022-08-17T13:17:08.557Z,31.70
2022-08-17T13:19:49.351Z,31.80
2022-08-17T13:22:18.208Z,32.00
2022-08-17T13:25:03.885Z,33.10
2022-08-17T13:27:32.357Z,33.50
2022-08-17T13:30:03.831Z,33.30
2022-08-17T13:32:30.896Z,33.30
2022-08-17T13:35:15.511Z,32.80
2022-08-17T13:38:02.130Z,32.40
2022-08-17T13:40:35.638Z,32.00
2022-08-17T13:43:03.358Z,31.80
2022-08-17T13:45:35.722Z,31.50
2022-08-17T13:48:06.395Z,31.30
2022-08-17T13:50:33.735Z,31.30
2022-08-17T13:53:00.595Z,31.40
2022-08-17T13:55:31.039Z,31.40
2022-08-17T13:58:06.686Z,31.10
2022-08-17T14:00:36.179Z,31.00
2022-08-17T14:03:04.770Z,30.90
2022-08-17T14:05:32.392Z,30.80
2022-08-17T14:08:02.483Z,30.60
2022-08-17T14:10:36.204Z,30.50
2022-08-17T14:13:03.384Z,30.40
2022-08-17T14:15:55.708Z,30.40
2022-08-17T14:18:54.296Z,30.40
2022-08-17T14:21:08.199Z,30.40
2022-08-17T14:23:35.207Z,30.40
2022-08-17T14:26:02.214Z,30.40
2022-08-17T14:28:28.838Z,30.50
2022-08-17T14:30:55.578Z,30.60
2022-08-17T14:33:24.636Z,30.60
2022-08-17T14:35:54.726Z,30.60
2022-08-17T14:38:21.427Z,30.40
2022-08-17T14:40:48.590Z,30.20
2022-08-17T14:43:15.729Z,30.10
2022-08-17T14:45:43.421Z,30.20
2022-08-17T14:48:10.901Z,30.30
2022-08-17T14:50:40.831Z,30.70
2022-08-17T14:53:10.598Z,30.90
2022-08-17T14:55:39.726Z,31.00
2022-08-17T14:58:07.496Z,31.00
2022-08-17T15:00:34.606Z,30.70
2022-08-17T15:03:02.043Z,30.30
2022-08-17T15:05:31.885Z,29.70
2022-08-17T15:07:59.712Z,29.30
2022-08-17T15:10:27.872Z,29.00
2022-08-17T15:12:54.781Z,28.50
2022-08-17T15:15:22.209Z,28.20
2022-08-17T15:17:48.991Z,27.80
2022-08-17T15:20:27.833Z,27.40
2022-08-17T15:22:55.916Z,26.90
2022-08-17T15:25:24.792Z,26.60
2022-08-17T15:27:51.876Z,26.20
2022-08-17T15:30:19.193Z,25.90
2022-08-17T15:32:53.906Z,25.70
2022-08-17T15:35:27.271Z,25.60
2022-08-17T15:38:08.022Z,25.40
2022-08-17T15:40:39.651Z,25.30
2022-08-17T15:43:08.063Z,25.30
2022-08-17T15:45:35.257Z,25.40
2022-08-17T15:48:02.245Z,25.50
2022-08-17T15:50:28.924Z,25.80
2022-08-17T15:52:58.209Z,26.30
2022-08-17T15:55:27.242Z,26.80
2022-08-17T15:57:54.350Z,27.20
2022-08-17T16:00:23.850Z,27.60
2022-08-17T16:03:14.171Z,28.10
2022-08-17T16:05:37.510Z,28.20
2022-08-17T16:08:07.556Z,28.60
2022-08-17T16:10:35.228Z,28.70
2022-08-17T16:13:03.939Z,28.50
2022-08-17T16:15:31.499Z,28.20
2022-08-17T16:17:58.188Z,28.00
2022-08-17T16:20:24.917Z,27.70
2022-08-17T16:22:51.874Z,28.10
2022-08-17T16:25:53.101Z,28.20
2022-08-17T16:28:12.928Z,28.50
2022-08-17T16:30:39.672Z,28.90
2022-08-17T16:33:06.423Z,28.20
2022-08-17T16:35:33.181Z,28.40
2022-08-17T16:37:59.881Z,32.60
2022-08-17T16:40:28.459Z,36.60
2022-08-17T16:42:57.746Z,40.50
2022-08-17T16:45:27.572Z,42.40
2022-08-17T16:47:55.025Z,40.70
2022-08-17T16:50:23.509Z,39.40
2022-08-17T16:52:50.954Z,40.40
2022-08-17T16:55:20.224Z,41.60
2022-08-17T16:57:50.707Z,41.90
2022-08-17T17:00:19.134Z,43.10
2022-08-17T17:02:47.908Z,43.40
2022-08-17T17:05:35.743Z,43.60
2022-08-17T17:08:30.852Z,43.30
2022-08-17T17:11:03.769Z,43.50
2022-08-17T17:13:54.050Z,41.80
2022-08-17T17:16:28.509Z,39.80
2022-08-17T17:19:09.582Z,39.40
2022-08-17T17:21:44.083Z,34.90
2022-08-17T17:24:16.785Z,32.50
2022-08-17T17:26:58.878Z,33.30
2022-08-17T17:29:48.724Z,34.80
2022-08-17T17:32:38.050Z,32.70
2022-08-17T17:35:10.645Z,30.50
2022-08-17T17:37:39.862Z,28.90
2022-08-17T17:40:29.068Z,27.60
2022-08-17T17:43:14.212Z,26.90
2022-08-17T17:45:58.596Z,26.30
2022-08-17T17:48:45.213Z,25.80
2022-08-17T17:52:06.777Z,25.50
2022-08-17T17:54:47.346Z,25.20
2022-08-17T17:57:50.899Z,25.00
2022-08-17T18:00:24.476Z,25.10
2022-08-17T18:03:11.254Z,25.10
2022-08-17T18:05:50.190Z,25.20
2022-08-17T18:08:45.886Z,25.00
2022-08-17T18:11:24.184Z,24.80
2022-08-17T18:14:16.403Z,24.70
2022-08-17T18:16:44.479Z,24.60
2022-08-17T18:19:20.626Z,24.60
2022-08-17T18:22:15.014Z,24.50
2022-08-17T18:24:45.243Z,24.40
2022-08-17T18:27:33.803Z,24.40
2022-08-17T18:30:22.544Z,24.30
2022-08-17T18:32:49.486Z,24.20
2022-08-17T18:35:19.294Z,24.10
2022-08-17T18:38:20.456Z,24.10
2022-08-17T18:40:59.251Z,24.00
2022-08-17T18:43:44.192Z,23.90
2022-08-17T18:46:35.015Z,23.80
2022-08-17T18:49:14.533Z,23.80
2022-08-17T18:51:43.406Z,23.70
2022-08-17T18:54:22.838Z,23.70
2022-08-17T18:56:54.356Z,23.60
2022-08-17T18:59:43.324Z,23.60
2022-08-17T19:02:36.026Z,23.60
2022-08-17T19:05:28.259Z,23.50
2022-08-17T19:08:13.746Z,23.40
2022-08-17T19:10:46.958Z,23.40
2022-08-17T19:13:37.198Z,23.20
2022-08-17T19:16:19.991Z,23.20
2022-08-17T19:18:57.807Z,23.10
2022-08-17T19:21:27.532Z,23.00
2022-08-17T19:23:58.794Z,23.00
2022-08-17T19:26:53.336Z,22.90
2022-08-17T19:29:22.849Z,22.90
2022-08-17T19:31:50.070Z,22.80
2022-08-17T19:34:30.213Z,22.70
2022-08-17T19:37:06.838Z,22.60
2022-08-17T19:40:00.271Z,22.50
2022-08-17T19:42:49.574Z,22.40
2022-08-17T19:45:33.304Z,22.30
2022-08-17T19:48:06.951Z,22.20
2022-08-17T19:50:53.069Z,22.20
2022-08-17T19:54:01.679Z,22.10
2022-08-17T19:56:29.382Z,22.00
2022-08-17T19:59:11.945Z,21.90
2022-08-17T20:01:54.375Z,21.90
2022-08-17T20:04:32.329Z,22.00
2022-08-17T20:07:16.574Z,22.00
2022-08-17T20:09:49.405Z,22.00
2022-08-17T20:12:38.051Z,22.10
2022-08-17T20:15:29.539Z,22.00
2022-08-17T20:18:00.889Z,22.00
2022-08-17T20:20:36.693Z,22.00
2022-08-17T20:23:22.323Z,22.00
2022-08-17T20:26:21.953Z,22.00
2022-08-17T20:29:16.503Z,21.90
2022-08-17T20:31:46.080Z,21.80
2022-08-17T20:34:33.395Z,21.80
2022-08-17T20:37:09.134Z,21.70
2022-08-17T20:39:46.586Z,21.60
2022-08-17T20:42:22.108Z,21.60
2022-08-17T20:44:53.193Z,21.60
2022-08-17T20:47:29.019Z,21.50
2022-08-17T20:50:13.507Z,21.40
2022-08-17T20:52:58.434Z,21.40
2022-08-17T20:55:34.297Z,21.30
2022-08-17T20:58:16.011Z,21.30
2022-08-17T21:00:48.694Z,21.30
2022-08-17T21:03:24.173Z,21.20
2022-08-17T21:05:57.401Z,21.20
2022-08-17T21:08:35.858Z,21.20
2022-08-17T21:12:02.751Z,21.10
2022-08-17T21:14:23.947Z,21.10
2022-08-17T21:17:17.003Z,21.00
2022-08-17T21:20:12.594Z,20.90
2022-08-17T21:22:52.842Z,20.90
2022-08-17T21:25:49.659Z,20.90
2022-08-17T21:28:35.050Z,20.90
2022-08-17T21:31:08.470Z,20.90
2022-08-17T21:33:39.454Z,20.80
2022-08-17T21:36:12.089Z,20.80
2022-08-17T21:38:47.539Z,20.80
2022-08-17T21:41:23.810Z,20.70
2022-08-17T21:43:52.190Z,20.60
2022-08-17T21:46:29.418Z,20.60
2022-08-17T21:49:05.045Z,20.40
2022-08-17T21:51:47.931Z,20.30
2022-08-17T21:54:20.799Z,20.30
2022-08-17T21:56:48.921Z,20.30
2022-08-17T21:59:19.312Z,20.30
2022-08-17T22:02:22.591Z,20.30
2022-08-17T22:04:59.054Z,20.30
2022-08-17T22:08:01.750Z,20.40
2022-08-17T22:10:34.675Z,20.40
2022-08-17T22:13:21.426Z,20.40
2022-08-17T22:15:49.750Z,20.40
2022-08-17T22:18:27.575Z,20.40
2022-08-17T22:20:56.986Z,20.40
2022-08-17T22:23:55.562Z,20.30
2022-08-17T22:26:27.639Z,20.40
2022-08-17T22:28:56.710Z,20.40
2022-08-17T22:31:29.423Z,20.40
2022-08-17T22:34:01.480Z,20.30
2022-08-17T22:36:39.319Z,20.30
2022-08-17T22:39:08.693Z,20.30
2022-08-17T22:41:47.986Z,20.40
2022-08-17T22:44:20.329Z,20.40
2022-08-17T22:47:16.893Z,20.60
2022-08-17T22:50:02.336Z,20.70
2022-08-17T22:53:02.369Z,20.60
2022-08-17T22:55:51.769Z,20.70
2022-08-17T22:58:58.666Z,20.60
2022-08-17T23:01:34.690Z,20.60
2022-08-17T23:04:02.564Z,20.60
2022-08-17T23:06:30.382Z,20.50
2022-08-17T23:08:57.553Z,20.50
2022-08-17T23:11:36.657Z,20.40
2022-08-17T23:14:15.556Z,20.30
2022-08-17T23:16:42.585Z,20.30
2022-08-17T23:19:15.432Z,20.30
2022-08-17T23:21:44.746Z,20.40
2022-08-17T23:24:17.405Z,20.40
2022-08-17T23:26:44.063Z,20.50
2022-08-17T23:29:10.717Z,20.50
2022-08-17T23:31:38.597Z,20.50
2022-08-17T23:34:09.155Z,20.50
2022-08-17T23:36:36.217Z,20.40
2022-08-17T23:39:03.667Z,20.40
2022-08-17T23:41:33.511Z,20.40
2022-08-17T23:44:01.072Z,20.40
2022-08-17T23:46:27.789Z,20.40
2022-08-17T23:48:54.543Z,20.40
2022-08-17T23:51:30.763Z,20.40
2022-08-17T23:54:07.991Z,20.50
2022-08-17T23:56:43.719Z,20.50
2022-08-17T23:59:11.159Z,20.50
